Terminal Aerodrome Forecast
Issued by NWS Pittsburgh, PA

Home | Current Version | Previous Version | Text Only | Print | Product List | Glossary On
Versions: 1 2 3 4 5 6 7 8 9 10 11 12 13 14 15 16 17 18 19 20 21 22 23 24 25 26 27 28 29 30
000
FTUS41 KPBZ 042055 AAA
TAFPIT
TAF AMD
KPIT 042055Z 0421/0524 25005KT P6SM SCT040 BKN250
     FM050000 11003KT P6SM SCT250
     FM051000 VRB03KT 5SM BR SCT250
     FM051400 16005KT P6SM SCT040 BKN250=

USA.gov is the U.S. government's official web portal to all federal, state and local government web resources and services.